Archival Weather

Chicago O'Hare International

Chicago, Illinois (KORD)

Report from: Sunday, March 6, 2022 11:51 PM CST
Current time: Saturday, February 4, 2023 11:08 PM CST

Current weather
Weather history
Weather forecast

Present weatherLight snow
Temperature1.7°C (35.1°F)
Wind chill-2.6°C (27.4°F)
Dew point-1.1°C (30.0°F)
Winds 9 kts (4.6 m/s, 10.4 mph) North-Northeast (20°)
Visibility3 mi. (4.8 km)
Clouds Ceiling: Overcast 2,100 ft. (640 m)
Altimeter29.95 in.Hg (1014 mB)
Precipitiation0.01 in. (0 mm)
Precip. events Rain began 11:14 PM
Rain ended 11:45 PM
Snow began 11:14 PM
Precip last 3 hours0.01 in. (0 mm)
Relative humidity82 %
Density altitude-1,566 ft. (-477 m)
Sea-level pressure101.5 kPa (1015 mB, 29.97 in.Hg)
Max temp last 6 hours3.9°C (39.0°F)
Min temp last 6 hours1.7°C (35.1°F)
Max temp last 24 hours15.0°C (59.0°F)
Min temp last 24 hours1.7°C (35.1°F)
Remarks Corrected report
System requires maintenance
Automated weather observing station with precipitation discriminator
Pressure falling more quickly
Flight conditions Marginal Visual Meteorological Conditions
Raw dataKORD 070551Z COR 02009KT 3SM -SN OVC021 02/M01 A2995 RMK AO2 SLP148 RAB14E45SNB14 P0001 60001 T00171011 10039 20017 401500017 58010 $
An unhandled exception has occurred. See browser dev tools for details. Reload 🗙